Airfield :
LOGIN :

Register | Disclaimer

   EN    FR    IT 

 










Legend :    VFR   Marginal VFR   IFR   Intensive IFR   Very Intensive IFR
Visi :
Ceiling :
>= 8 km
>= 3000ft
5 to 8 km
1000 to 3000 ft
1500m to 5 km
500 to 1000 ft
800 to 1500m
200 to 500 ft
< 800m
< 200 ft
Symbols :   Thunderstorms  Fog  Heavy snow  Heavy precipitations  Wind > 20 kt
SIGMETs :     Misc.  Thunderstorms  Icing  Turbulence  Mountain Waves  Volcanic Ashes






- Airport Elevation : 194 ft
- IATA code : LME


LFRM - Le Mans

CURRENT METAR :
  • 270700Z AUTO 20013KT 7000 -RA BKN008 OVC013 08/07 Q0996 TEMPO 4000 RA BECMG 28020G40KT BKN022

EXPIRED METARs :
  • 270630Z AUTO 19015G25KT 150V240 9999 -RA OVC007 07/07 Q0997 TEMPO 4000 RA BECMG 28020G40KT BKN022
  • 270600Z AUTO 19013KT 160V220 9000 -RA OVC007/// ///TCU 07/06 Q0998 TEMPO 4000 RA BKN004
  • 270530Z AUTO 19011KT 160V220 7000 -RA OVC008/// ///TCU 07/06 Q0999 TEMPO 4000 RA BKN004
  • 270500Z AUTO 18011KT 140V200 8000 -RA OVC007/// ///TCU 06/05 Q1000
  • 270430Z AUTO 17009KT 130V200 8000 -RA OVC007/// ///TCU 06/05 Q1002

TAF TAF LFRM
Valid from the 27 at 06:00 until the 28 at 06:00 UTC


270500Z 2706/2806 18012KT 9999 -RA BKN007
TEMPO 2706/2708 4000 RA BKN004
BECMG 2708/2711 28020G40KT 9999 NSW BKN022
BECMG 2712/2714 32015G30KT SCT025
BECMG 2715/2718 32008KT
BECMG 2800/2803 16008KT



MET'MAP, your aeronautical weather chart ! - Copyright ORBIFLY December 2007 - Disclaimer

ORBIFLY MET'MAP TEAM :

Programming & Development : Alexandra Zaïnal
Concept & original design : Baudouin d'Aumeries
Assistance for programming : Marc-Olivier Méhu
Technical & hardware support : Manuel Goepfert

Contact : metmap@orbifly.com




SOURCES & CREDITS :

   NOAA